logo
Search for airport 
image banner adimage banner adimage banner ad
image banner ad

EHS031 - Polsbroek

Located in , Netherlands

ICAO - , IATA -

Data provided by Airmate  

General information

Coordinates: N51°58'16" E4°52'4"
Elevation is feet MSL.
 
View others Airports in Zuid-Holland

Operational data

Special qualification required
Current time UTC:
Current local time:
Weather at : EHRD - Rotterdam/Rotterdam ( 30 km )
METAR: EHRD 281455Z AUTO 18009KT 150V220 9999 SCT029 SCT033 BKN042 19/13 Q1016 NOSIG
TAF: TAF COR EHRD 281206Z 2812/2918 23013KT 9999 BKN030 BECMG 2816/2819 19007KT TEMPO 2910/2914 7000 -RA BKN018 PROB30 TEMPO 2911/2913 4000 -RADZ BKN010 BECMG 2912/2914 30012KT
View NOTAMs / SUP AIP / TFR affecting this airport [VIEW]
Communications frequencies: [VIEW]

Runways:

Airport contact information

Address: Netherlands

Satellite view of EHS031